Terminal Aerodrome Forecast
Issued by NWS

Home | Current Version | Previous Version | Text Only | Print | Product List | Glossary On
Versions: 1 2 3 4 5 6 7 8 9 10 11 12 13 14 15
000
FTUS43 KGRB 152006 AAA
TAFATW
TAF AMD
KATW 152006Z 1520/1618 28010G17KT P6SM OVC250
     FM152300 34010KT P6SM SCT030
     FM160200 34012G17KT P6SM BKN030
     FM161000 32010G17KT P6SM SKC=

USA.gov is the U.S. government's official web portal to all federal, state and local government web resources and services.